sensor_id;sensor_type;location;lat;lon;timestamp;P1;durP1;ratioP1;P2;durP2;ratioP2
37777;SDS011;23615;51.506;7.678;2024-02-21T00:00:47;16.37;;;8.40;;
37777;SDS011;23615;51.506;7.678;2024-02-21T00:03:13;19.97;;;8.73;;
37777;SDS011;23615;51.506;7.678;2024-02-21T00:05:38;16.07;;;8.33;;
37777;SDS011;23615;51.506;7.678;2024-02-21T00:08:04;14.97;;;8.20;;
37777;SDS011;23615;51.506;7.678;2024-02-21T00:10:29;17.40;;;8.03;;
37777;SDS011;23615;51.506;7.678;2024-02-21T00:12:56;18.42;;;8.10;;
37777;SDS011;23615;51.506;7.678;2024-02-21T00:15:22;19.87;;;8.73;;
37777;SDS011;23615;51.506;7.678;2024-02-21T00:17:47;15.13;;;8.30;;
37777;SDS011;23615;51.506;7.678;2024-02-21T00:20:13;16.80;;;7.68;;
37777;SDS011;23615;51.506;7.678;2024-02-21T00:22:39;17.30;;;8.80;;
37777;SDS011;23615;51.506;7.678;2024-02-21T00:25:04;16.53;;;8.33;;
37777;SDS011;23615;51.506;7.678;2024-02-21T00:27:29;14.73;;;7.73;;
37777;SDS011;23615;51.506;7.678;2024-02-21T00:29:56;19.42;;;7.70;;
37777;SDS011;23615;51.506;7.678;2024-02-21T00:32:21;18.37;;;8.10;;
37777;SDS011;23615;51.506;7.678;2024-02-21T00:34:46;15.83;;;7.83;;
37777;SDS011;23615;51.506;7.678;2024-02-21T00:37:11;17.13;;;8.33;;
37777;SDS011;23615;51.506;7.678;2024-02-21T00:39:37;15.60;;;7.15;;
37777;SDS011;23615;51.506;7.678;2024-02-21T00:42:02;15.30;;;8.00;;
37777;SDS011;23615;51.506;7.678;2024-02-21T00:44:28;18.33;;;7.72;;
37777;SDS011;23615;51.506;7.678;2024-02-21T00:46:53;15.43;;;7.68;;
37777;SDS011;23615;51.506;7.678;2024-02-21T00:49:18;17.00;;;7.90;;
37777;SDS011;23615;51.506;7.678;2024-02-21T00:51:44;16.43;;;8.07;;
37777;SDS011;23615;51.506;7.678;2024-02-21T00:54:09;16.07;;;8.17;;
37777;SDS011;23615;51.506;7.678;2024-02-21T00:56:34;13.90;;;7.47;;
37777;SDS011;23615;51.506;7.678;2024-02-21T00:58:59;16.30;;;7.97;;
37777;SDS011;23615;51.506;7.678;2024-02-21T01:01:25;19.13;;;7.23;;
37777;SDS011;23615;51.506;7.678;2024-02-21T01:03:51;14.57;;;7.85;;
37777;SDS011;23615;51.506;7.678;2024-02-21T01:06:18;14.45;;;6.97;;
37777;SDS011;23615;51.506;7.678;2024-02-21T01:08:46;15.07;;;7.60;;
37777;SDS011;23615;51.506;7.678;2024-02-21T01:11:13;15.30;;;7.30;;
37777;SDS011;23615;51.506;7.678;2024-02-21T01:13:38;15.55;;;7.25;;
37777;SDS011;23615;51.506;7.678;2024-02-21T01:16:04;16.30;;;8.30;;
37777;SDS011;23615;51.506;7.678;2024-02-21T01:18:31;14.90;;;7.60;;
37777;SDS011;23615;51.506;7.678;2024-02-21T01:20:57;15.98;;;8.00;;
37777;SDS011;23615;51.506;7.678;2024-02-21T01:23:22;17.87;;;8.37;;
37777;SDS011;23615;51.506;7.678;2024-02-21T01:25:47;15.17;;;7.43;;
37777;SDS011;23615;51.506;7.678;2024-02-21T01:28:13;16.33;;;7.53;;
37777;SDS011;23615;51.506;7.678;2024-02-21T01:30:38;17.27;;;7.85;;
37777;SDS011;23615;51.506;7.678;2024-02-21T01:33:03;17.53;;;8.40;;
37777;SDS011;23615;51.506;7.678;2024-02-21T01:35:29;11.73;;;7.30;;
37777;SDS011;23615;51.506;7.678;2024-02-21T01:37:54;16.90;;;7.50;;
37777;SDS011;23615;51.506;7.678;2024-02-21T01:40:19;15.77;;;7.27;;
37777;SDS011;23615;51.506;7.678;2024-02-21T01:42:44;15.07;;;7.80;;
37777;SDS011;23615;51.506;7.678;2024-02-21T01:45:10;15.70;;;8.07;;
37777;SDS011;23615;51.506;7.678;2024-02-21T01:47:36;17.17;;;7.28;;
37777;SDS011;23615;51.506;7.678;2024-02-21T01:50:02;12.13;;;6.93;;
37777;SDS011;23615;51.506;7.678;2024-02-21T01:52:28;14.57;;;7.38;;
37777;SDS011;23615;51.506;7.678;2024-02-21T01:54:55;13.83;;;7.80;;
37777;SDS011;23615;51.506;7.678;2024-02-21T01:57:22;14.65;;;7.80;;
37777;SDS011;23615;51.506;7.678;2024-02-21T01:59:48;17.63;;;7.77;;
37777;SDS011;23615;51.506;7.678;2024-02-21T02:02:13;13.40;;;7.33;;
37777;SDS011;23615;51.506;7.678;2024-02-21T02:04:38;13.07;;;7.00;;
37777;SDS011;23615;51.506;7.678;2024-02-21T02:07:04;16.00;;;7.85;;
37777;SDS011;23615;51.506;7.678;2024-02-21T02:09:32;15.05;;;7.60;;
37777;SDS011;23615;51.506;7.678;2024-02-21T02:11:57;15.13;;;7.00;;
37777;SDS011;23615;51.506;7.678;2024-02-21T02:14:24;13.23;;;7.25;;
37777;SDS011;23615;51.506;7.678;2024-02-21T02:16:50;16.00;;;7.25;;
37777;SDS011;23615;51.506;7.678;2024-02-21T02:19:15;13.13;;;6.43;;
37777;SDS011;23615;51.506;7.678;2024-02-21T02:21:42;13.73;;;7.37;;
37777;SDS011;23615;51.506;7.678;2024-02-21T02:24:10;15.93;;;7.22;;
37777;SDS011;23615;51.506;7.678;2024-02-21T02:26:35;14.30;;;7.05;;
37777;SDS011;23615;51.506;7.678;2024-02-21T02:29:04;13.83;;;7.03;;
37777;SDS011;23615;51.506;7.678;2024-02-21T02:31:29;12.50;;;7.13;;
37777;SDS011;23615;51.506;7.678;2024-02-21T02:33:54;12.57;;;6.70;;
37777;SDS011;23615;51.506;7.678;2024-02-21T02:36:20;15.63;;;8.03;;
37777;SDS011;23615;51.506;7.678;2024-02-21T02:38:45;14.20;;;7.30;;
37777;SDS011;23615;51.506;7.678;2024-02-21T02:41:10;12.97;;;6.63;;
37777;SDS011;23615;51.506;7.678;2024-02-21T02:43:35;15.23;;;6.90;;
37777;SDS011;23615;51.506;7.678;2024-02-21T02:46:02;17.40;;;7.03;;
37777;SDS011;23615;51.506;7.678;2024-02-21T02:48:27;11.07;;;6.20;;
37777;SDS011;23615;51.506;7.678;2024-02-21T02:50:52;14.30;;;6.97;;
37777;SDS011;23615;51.506;7.678;2024-02-21T02:53:18;11.30;;;7.47;;
37777;SDS011;23615;51.506;7.678;2024-02-21T02:55:43;14.70;;;7.07;;
37777;SDS011;23615;51.506;7.678;2024-02-21T02:58:08;13.50;;;6.70;;
37777;SDS011;23615;51.506;7.678;2024-02-21T03:00:33;13.40;;;7.17;;
37777;SDS011;23615;51.506;7.678;2024-02-21T03:03:01;17.80;;;7.20;;
37777;SDS011;23615;51.506;7.678;2024-02-21T03:05:28;16.25;;;7.07;;
37777;SDS011;23615;51.506;7.678;2024-02-21T03:07:54;19.13;;;7.45;;
37777;SDS011;23615;51.506;7.678;2024-02-21T03:10:19;16.17;;;6.90;;
37777;SDS011;23615;51.506;7.678;2024-02-21T03:12:44;16.70;;;7.20;;
37777;SDS011;23615;51.506;7.678;2024-02-21T03:15:10;12.47;;;6.67;;
37777;SDS011;23615;51.506;7.678;2024-02-21T03:17:35;15.63;;;7.73;;
37777;SDS011;23615;51.506;7.678;2024-02-21T03:20:04;12.37;;;6.17;;
37777;SDS011;23615;51.506;7.678;2024-02-21T03:22:30;13.65;;;6.20;;
37777;SDS011;23615;51.506;7.678;2024-02-21T03:24:56;10.82;;;6.20;;
37777;SDS011;23615;51.506;7.678;2024-02-21T03:27:21;13.50;;;7.03;;
37777;SDS011;23615;51.506;7.678;2024-02-21T03:29:47;16.53;;;7.53;;
37777;SDS011;23615;51.506;7.678;2024-02-21T03:32:12;17.58;;;7.15;;
37777;SDS011;23615;51.506;7.678;2024-02-21T03:34:38;14.30;;;6.77;;
37777;SDS011;23615;51.506;7.678;2024-02-21T03:37:03;12.10;;;6.50;;
37777;SDS011;23615;51.506;7.678;2024-02-21T03:39:30;13.83;;;6.57;;
37777;SDS011;23615;51.506;7.678;2024-02-21T03:41:57;13.10;;;6.43;;
37777;SDS011;23615;51.506;7.678;2024-02-21T03:44:23;13.45;;;6.53;;
37777;SDS011;23615;51.506;7.678;2024-02-21T03:46:48;11.77;;;6.67;;
37777;SDS011;23615;51.506;7.678;2024-02-21T03:49:13;10.47;;;6.50;;
37777;SDS011;23615;51.506;7.678;2024-02-21T03:51:39;12.90;;;6.43;;
37777;SDS011;23615;51.506;7.678;2024-02-21T03:54:04;13.23;;;6.63;;
37777;SDS011;23615;51.506;7.678;2024-02-21T03:56:29;13.77;;;7.00;;
37777;SDS011;23615;51.506;7.678;2024-02-21T03:58:54;10.93;;;6.00;;
37777;SDS011;23615;51.506;7.678;2024-02-21T04:01:20;11.80;;;6.45;;
37777;SDS011;23615;51.506;7.678;2024-02-21T04:03:45;12.73;;;6.33;;
37777;SDS011;23615;51.506;7.678;2024-02-21T04:06:11;13.57;;;6.53;;
37777;SDS011;23615;51.506;7.678;2024-02-21T04:08:37;13.25;;;6.03;;
37777;SDS011;23615;51.506;7.678;2024-02-21T04:11:02;12.67;;;6.20;;
37777;SDS011;23615;51.506;7.678;2024-02-21T04:13:27;13.80;;;6.93;;
37777;SDS011;23615;51.506;7.678;2024-02-21T04:15:53;11.73;;;6.50;;
37777;SDS011;23615;51.506;7.678;2024-02-21T04:18:18;16.40;;;7.30;;
37777;SDS011;23615;51.506;7.678;2024-02-21T04:20:43;12.68;;;6.60;;
37777;SDS011;23615;51.506;7.678;2024-02-21T04:23:09;12.90;;;6.65;;
37777;SDS011;23615;51.506;7.678;2024-02-21T04:25:34;13.17;;;6.07;;
37777;SDS011;23615;51.506;7.678;2024-02-21T04:27:59;17.53;;;7.30;;
37777;SDS011;23615;51.506;7.678;2024-02-21T04:30:25;12.70;;;6.70;;
37777;SDS011;23615;51.506;7.678;2024-02-21T04:32:50;14.53;;;6.53;;
37777;SDS011;23615;51.506;7.678;2024-02-21T04:35:16;15.20;;;6.07;;
37777;SDS011;23615;51.506;7.678;2024-02-21T04:37:41;14.43;;;6.60;;
37777;SDS011;23615;51.506;7.678;2024-02-21T04:40:07;11.43;;;6.73;;
37777;SDS011;23615;51.506;7.678;2024-02-21T04:42:32;11.85;;;5.70;;
37777;SDS011;23615;51.506;7.678;2024-02-21T04:44:58;11.60;;;6.40;;
37777;SDS011;23615;51.506;7.678;2024-02-21T04:47:23;10.57;;;6.30;;
37777;SDS011;23615;51.506;7.678;2024-02-21T04:49:50;11.85;;;6.60;;
37777;SDS011;23615;51.506;7.678;2024-02-21T04:52:15;13.83;;;6.77;;
37777;SDS011;23615;51.506;7.678;2024-02-21T04:54:40;11.27;;;6.00;;
37777;SDS011;23615;51.506;7.678;2024-02-21T04:57:06;8.83;;;5.63;;
37777;SDS011;23615;51.506;7.678;2024-02-21T04:59:31;12.57;;;6.17;;
37777;SDS011;23615;51.506;7.678;2024-02-21T05:01:57;12.03;;;6.00;;
37777;SDS011;23615;51.506;7.678;2024-02-21T05:04:23;11.03;;;6.30;;
37777;SDS011;23615;51.506;7.678;2024-02-21T05:06:49;12.52;;;6.22;;
37777;SDS011;23615;51.506;7.678;2024-02-21T05:09:14;14.52;;;6.07;;
37777;SDS011;23615;51.506;7.678;2024-02-21T05:11:40;15.50;;;6.67;;
37777;SDS011;23615;51.506;7.678;2024-02-21T05:14:05;10.13;;;5.77;;
37777;SDS011;23615;51.506;7.678;2024-02-21T05:16:31;9.40;;;4.70;;
37777;SDS011;23615;51.506;7.678;2024-02-21T05:18:56;11.10;;;4.40;;
37777;SDS011;23615;51.506;7.678;2024-02-21T05:21:22;9.27;;;4.90;;
37777;SDS011;23615;51.506;7.678;2024-02-21T05:23:48;11.38;;;5.72;;
37777;SDS011;23615;51.506;7.678;2024-02-21T05:26:19;11.87;;;5.00;;
37777;SDS011;23615;51.506;7.678;2024-02-21T05:28:49;11.60;;;5.45;;
37777;SDS011;23615;51.506;7.678;2024-02-21T05:31:15;11.85;;;5.95;;
37777;SDS011;23615;51.506;7.678;2024-02-21T05:33:41;9.40;;;5.53;;
37777;SDS011;23615;51.506;7.678;2024-02-21T05:36:07;9.17;;;5.20;;
37777;SDS011;23615;51.506;7.678;2024-02-21T05:38:32;8.73;;;5.43;;
37777;SDS011;23615;51.506;7.678;2024-02-21T05:40:57;11.50;;;5.63;;
37777;SDS011;23615;51.506;7.678;2024-02-21T05:43:23;13.30;;;5.80;;
37777;SDS011;23615;51.506;7.678;2024-02-21T05:45:48;14.27;;;5.30;;
37777;SDS011;23615;51.506;7.678;2024-02-21T05:48:13;9.43;;;5.07;;
37777;SDS011;23615;51.506;7.678;2024-02-21T05:50:39;11.63;;;5.15;;
37777;SDS011;23615;51.506;7.678;2024-02-21T05:53:04;11.10;;;5.20;;
37777;SDS011;23615;51.506;7.678;2024-02-21T05:55:29;11.57;;;5.47;;
37777;SDS011;23615;51.506;7.678;2024-02-21T05:57:54;9.63;;;4.80;;
37777;SDS011;23615;51.506;7.678;2024-02-21T06:00:20;10.27;;;4.53;;
37777;SDS011;23615;51.506;7.678;2024-02-21T06:02:46;9.80;;;4.73;;
37777;SDS011;23615;51.506;7.678;2024-02-21T06:05:11;8.03;;;4.97;;
37777;SDS011;23615;51.506;7.678;2024-02-21T06:07:36;8.30;;;4.90;;
37777;SDS011;23615;51.506;7.678;2024-02-21T06:10:02;10.23;;;4.70;;
37777;SDS011;23615;51.506;7.678;2024-02-21T06:12:27;6.40;;;3.77;;
37777;SDS011;23615;51.506;7.678;2024-02-21T06:14:53;9.03;;;4.57;;
37777;SDS011;23615;51.506;7.678;2024-02-21T06:17:18;11.20;;;5.37;;
37777;SDS011;23615;51.506;7.678;2024-02-21T06:19:43;11.83;;;4.83;;
37777;SDS011;23615;51.506;7.678;2024-02-21T06:22:10;10.93;;;4.72;;
37777;SDS011;23615;51.506;7.678;2024-02-21T06:24:35;7.97;;;4.30;;
37777;SDS011;23615;51.506;7.678;2024-02-21T06:27:04;10.27;;;4.40;;
37777;SDS011;23615;51.506;7.678;2024-02-21T06:29:31;8.20;;;4.25;;
37777;SDS011;23615;51.506;7.678;2024-02-21T06:31:56;9.60;;;4.38;;
37777;SDS011;23615;51.506;7.678;2024-02-21T06:34:21;10.95;;;5.25;;
37777;SDS011;23615;51.506;7.678;2024-02-21T06:36:47;9.87;;;4.50;;
37777;SDS011;23615;51.506;7.678;2024-02-21T06:39:12;9.67;;;4.47;;
37777;SDS011;23615;51.506;7.678;2024-02-21T06:41:37;9.93;;;4.30;;
37777;SDS011;23615;51.506;7.678;2024-02-21T06:44:03;9.43;;;4.73;;
37777;SDS011;23615;51.506;7.678;2024-02-21T06:46:28;10.30;;;4.93;;
37777;SDS011;23615;51.506;7.678;2024-02-21T06:48:54;10.30;;;4.18;;
37777;SDS011;23615;51.506;7.678;2024-02-21T06:51:23;5.47;;;3.80;;
37777;SDS011;23615;51.506;7.678;2024-02-21T06:53:48;9.20;;;3.63;;
37777;SDS011;23615;51.506;7.678;2024-02-21T06:56:13;7.38;;;3.90;;
37777;SDS011;23615;51.506;7.678;2024-02-21T06:58:39;8.70;;;4.23;;
37777;SDS011;23615;51.506;7.678;2024-02-21T07:01:04;9.83;;;3.77;;
37777;SDS011;23615;51.506;7.678;2024-02-21T07:03:29;9.67;;;3.60;;
37777;SDS011;23615;51.506;7.678;2024-02-21T07:05:54;9.47;;;3.70;;
37777;SDS011;23615;51.506;7.678;2024-02-21T07:08:20;9.47;;;3.93;;
37777;SDS011;23615;51.506;7.678;2024-02-21T07:10:45;8.50;;;3.60;;
37777;SDS011;23615;51.506;7.678;2024-02-21T07:13:10;6.53;;;3.33;;
37777;SDS011;23615;51.506;7.678;2024-02-21T07:15:36;10.47;;;3.17;;
37777;SDS011;23615;51.506;7.678;2024-02-21T07:18:02;7.05;;;3.30;;
37777;SDS011;23615;51.506;7.678;2024-02-21T07:20:28;6.05;;;3.00;;
37777;SDS011;23615;51.506;7.678;2024-02-21T07:22:53;7.37;;;2.90;;
37777;SDS011;23615;51.506;7.678;2024-02-21T07:25:19;8.57;;;3.13;;
37777;SDS011;23615;51.506;7.678;2024-02-21T07:27:44;6.77;;;3.10;;
37777;SDS011;23615;51.506;7.678;2024-02-21T07:30:10;5.13;;;2.80;;
37777;SDS011;23615;51.506;7.678;2024-02-21T07:32:35;8.37;;;3.33;;
37777;SDS011;23615;51.506;7.678;2024-02-21T07:35:01;7.40;;;3.40;;
37777;SDS011;23615;51.506;7.678;2024-02-21T07:37:26;5.07;;;2.97;;
37777;SDS011;23615;51.506;7.678;2024-02-21T07:39:52;5.90;;;2.93;;
37777;SDS011;23615;51.506;7.678;2024-02-21T07:42:17;7.13;;;3.40;;
37777;SDS011;23615;51.506;7.678;2024-02-21T07:44:42;6.30;;;3.37;;
37777;SDS011;23615;51.506;7.678;2024-02-21T07:47:07;8.20;;;3.72;;
37777;SDS011;23615;51.506;7.678;2024-02-21T07:49:33;9.90;;;3.70;;
37777;SDS011;23615;51.506;7.678;2024-02-21T07:52:05;9.27;;;3.80;;
37777;SDS011;23615;51.506;7.678;2024-02-21T07:54:30;9.03;;;3.53;;
37777;SDS011;23615;51.506;7.678;2024-02-21T07:56:55;8.33;;;3.20;;
37777;SDS011;23615;51.506;7.678;2024-02-21T07:59:21;9.50;;;3.63;;
37777;SDS011;23615;51.506;7.678;2024-02-21T08:01:46;6.67;;;3.30;;
37777;SDS011;23615;51.506;7.678;2024-02-21T08:04:11;10.10;;;3.87;;
37777;SDS011;23615;51.506;7.678;2024-02-21T08:06:36;9.33;;;3.90;;
37777;SDS011;23615;51.506;7.678;2024-02-21T08:09:02;7.63;;;3.60;;
37777;SDS011;23615;51.506;7.678;2024-02-21T08:11:27;7.73;;;3.63;;
37777;SDS011;23615;51.506;7.678;2024-02-21T08:13:53;8.40;;;3.53;;
37777;SDS011;23615;51.506;7.678;2024-02-21T08:16:18;7.97;;;3.77;;
37777;SDS011;23615;51.506;7.678;2024-02-21T08:18:44;6.90;;;3.95;;
37777;SDS011;23615;51.506;7.678;2024-02-21T08:21:09;11.15;;;4.88;;
37777;SDS011;23615;51.506;7.678;2024-02-21T08:23:35;7.07;;;3.60;;
37777;SDS011;23615;51.506;7.678;2024-02-21T08:26:02;10.17;;;4.00;;
37777;SDS011;23615;51.506;7.678;2024-02-21T08:28:28;7.30;;;4.28;;
37777;SDS011;23615;51.506;7.678;2024-02-21T08:30:54;8.00;;;4.23;;
37777;SDS011;23615;51.506;7.678;2024-02-21T08:33:19;8.73;;;4.30;;
37777;SDS011;23615;51.506;7.678;2024-02-21T08:35:49;6.40;;;4.70;;
37777;SDS011;23615;51.506;7.678;2024-02-21T08:38:14;8.73;;;4.40;;
37777;SDS011;23615;51.506;7.678;2024-02-21T08:40:40;7.17;;;4.30;;
37777;SDS011;23615;51.506;7.678;2024-02-21T08:43:05;9.93;;;4.90;;
37777;SDS011;23615;51.506;7.678;2024-02-21T08:45:30;8.67;;;4.50;;
37777;SDS011;23615;51.506;7.678;2024-02-21T08:47:55;8.47;;;3.93;;
37777;SDS011;23615;51.506;7.678;2024-02-21T08:50:21;9.87;;;4.50;;
37777;SDS011;23615;51.506;7.678;2024-02-21T08:52:46;7.73;;;4.47;;
37777;SDS011;23615;51.506;7.678;2024-02-21T08:55:11;8.90;;;4.33;;
37777;SDS011;23615;51.506;7.678;2024-02-21T08:57:36;9.53;;;4.30;;
37777;SDS011;23615;51.506;7.678;2024-02-21T09:00:05;8.53;;;4.10;;
37777;SDS011;23615;51.506;7.678;2024-02-21T09:02:35;7.60;;;3.90;;
37777;SDS011;23615;51.506;7.678;2024-02-21T09:05:02;6.68;;;3.45;;
37777;SDS011;23615;51.506;7.678;2024-02-21T09:07:30;6.22;;;3.65;;
37777;SDS011;23615;51.506;7.678;2024-02-21T09:09:55;7.97;;;4.00;;
37777;SDS011;23615;51.506;7.678;2024-02-21T09:12:20;5.53;;;2.97;;
37777;SDS011;23615;51.506;7.678;2024-02-21T09:14:46;8.02;;;3.60;;
37777;SDS011;23615;51.506;7.678;2024-02-21T09:17:14;6.97;;;3.47;;
37777;SDS011;23615;51.506;7.678;2024-02-21T09:19:42;7.47;;;4.30;;
37777;SDS011;23615;51.506;7.678;2024-02-21T09:22:07;7.70;;;4.80;;
37777;SDS011;23615;51.506;7.678;2024-02-21T09:24:32;9.47;;;5.53;;
37777;SDS011;23615;51.506;7.678;2024-02-21T09:26:58;8.73;;;5.53;;
37777;SDS011;23615;51.506;7.678;2024-02-21T09:29:23;8.80;;;5.80;;
37777;SDS011;23615;51.506;7.678;2024-02-21T09:31:48;7.87;;;5.03;;
37777;SDS011;23615;51.506;7.678;2024-02-21T09:34:13;10.80;;;5.57;;
37777;SDS011;23615;51.506;7.678;2024-02-21T09:36:39;10.00;;;5.47;;
37777;SDS011;23615;51.506;7.678;2024-02-21T09:39:05;7.22;;;4.82;;
37777;SDS011;23615;51.506;7.678;2024-02-21T09:41:30;8.80;;;4.60;;
37777;SDS011;23615;51.506;7.678;2024-02-21T09:43:59;6.53;;;4.22;;
37777;SDS011;23615;51.506;7.678;2024-02-21T09:46:30;8.40;;;4.50;;
37777;SDS011;23615;51.506;7.678;2024-02-21T09:49:22;7.20;;;3.65;;
37777;SDS011;23615;51.506;7.678;2024-02-21T09:51:58;6.57;;;3.60;;
37777;SDS011;23615;51.506;7.678;2024-02-21T09:54:25;8.48;;;3.28;;
37777;SDS011;23615;51.506;7.678;2024-02-21T09:56:53;6.57;;;2.87;;
37777;SDS011;23615;51.506;7.678;2024-02-21T09:59:18;5.23;;;2.90;;
37777;SDS011;23615;51.506;7.678;2024-02-21T10:01:43;6.33;;;2.53;;
37777;SDS011;23615;51.506;7.678;2024-02-21T10:04:09;5.80;;;2.60;;
37777;SDS011;23615;51.506;7.678;2024-02-21T10:06:35;7.28;;;2.92;;
37777;SDS011;23615;51.506;7.678;2024-02-21T10:09:02;7.55;;;2.47;;
37777;SDS011;23615;51.506;7.678;2024-02-21T10:11:28;7.70;;;2.42;;
37777;SDS011;23615;51.506;7.678;2024-02-21T10:14:08;6.18;;;2.72;;
37777;SDS011;23615;51.506;7.678;2024-02-21T10:16:34;7.05;;;1.90;;
37777;SDS011;23615;51.506;7.678;2024-02-21T10:18:59;10.43;;;2.50;;
37777;SDS011;23615;51.506;7.678;2024-02-21T10:21:25;8.10;;;3.25;;
37777;SDS011;23615;51.506;7.678;2024-02-21T10:23:50;6.33;;;2.93;;
37777;SDS011;23615;51.506;7.678;2024-02-21T10:26:17;6.07;;;2.70;;
37777;SDS011;23615;51.506;7.678;2024-02-21T10:28:43;7.53;;;3.55;;
37777;SDS011;23615;51.506;7.678;2024-02-21T10:31:20;12.00;;;3.33;;
37777;SDS011;23615;51.506;7.678;2024-02-21T10:34:01;8.48;;;3.20;;
37777;SDS011;23615;51.506;7.678;2024-02-21T10:36:30;7.43;;;3.30;;
37777;SDS011;23615;51.506;7.678;2024-02-21T10:38:55;10.50;;;3.57;;
37777;SDS011;23615;51.506;7.678;2024-02-21T10:41:21;10.90;;;3.53;;
37777;SDS011;23615;51.506;7.678;2024-02-21T10:43:51;7.75;;;3.38;;
37777;SDS011;23615;51.506;7.678;2024-02-21T10:46:19;9.30;;;3.92;;
37777;SDS011;23615;51.506;7.678;2024-02-21T10:48:45;8.75;;;3.17;;
37777;SDS011;23615;51.506;7.678;2024-02-21T10:56:26;9.10;;;2.85;;
37777;SDS011;23615;51.506;7.678;2024-02-21T10:58:52;8.23;;;2.60;;
37777;SDS011;23615;51.506;7.678;2024-02-21T11:01:18;8.80;;;3.22;;
37777;SDS011;23615;51.506;7.678;2024-02-21T11:03:45;9.13;;;3.30;;
37777;SDS011;23615;51.506;7.678;2024-02-21T11:06:12;8.07;;;3.13;;
37777;SDS011;23615;51.506;7.678;2024-02-21T11:08:39;10.52;;;2.97;;
37777;SDS011;23615;51.506;7.678;2024-02-21T11:11:05;8.23;;;2.87;;
37777;SDS011;23615;51.506;7.678;2024-02-21T11:13:31;6.80;;;2.20;;
37777;SDS011;23615;51.506;7.678;2024-02-21T11:16:10;8.53;;;2.57;;
37777;SDS011;23615;51.506;7.678;2024-02-21T11:18:36;8.17;;;3.17;;
37777;SDS011;23615;51.506;7.678;2024-02-21T11:21:02;8.65;;;3.17;;
37777;SDS011;23615;51.506;7.678;2024-02-21T11:23:29;5.93;;;2.83;;
37777;SDS011;23615;51.506;7.678;2024-02-21T11:26:05;7.10;;;3.13;;
37777;SDS011;23615;51.506;7.678;2024-02-21T11:28:34;7.30;;;3.03;;
37777;SDS011;23615;51.506;7.678;2024-02-21T11:31:06;7.03;;;3.10;;
37777;SDS011;23615;51.506;7.678;2024-02-21T11:33:33;7.53;;;3.20;;
37777;SDS011;23615;51.506;7.678;2024-02-21T11:35:59;6.47;;;2.37;;
37777;SDS011;23615;51.506;7.678;2024-02-21T11:38:24;6.13;;;2.60;;
37777;SDS011;23615;51.506;7.678;2024-02-21T11:40:50;6.20;;;2.50;;
37777;SDS011;23615;51.506;7.678;2024-02-21T11:43:15;6.60;;;2.50;;
37777;SDS011;23615;51.506;7.678;2024-02-21T11:45:41;6.82;;;2.55;;
37777;SDS011;23615;51.506;7.678;2024-02-21T11:48:07;6.70;;;2.50;;
37777;SDS011;23615;51.506;7.678;2024-02-21T11:50:33;5.10;;;2.13;;
37777;SDS011;23615;51.506;7.678;2024-02-21T11:53:00;5.15;;;2.38;;
37777;SDS011;23615;51.506;7.678;2024-02-21T11:55:25;5.27;;;2.37;;
37777;SDS011;23615;51.506;7.678;2024-02-21T11:57:51;6.60;;;2.07;;
37777;SDS011;23615;51.506;7.678;2024-02-21T12:00:17;5.05;;;1.85;;
37777;SDS011;23615;51.506;7.678;2024-02-21T12:02:45;4.15;;;1.92;;
37777;SDS011;23615;51.506;7.678;2024-02-21T12:05:11;5.97;;;1.83;;
37777;SDS011;23615;51.506;7.678;2024-02-21T12:07:36;5.43;;;1.90;;
37777;SDS011;23615;51.506;7.678;2024-02-21T12:10:07;4.80;;;1.83;;
37777;SDS011;23615;51.506;7.678;2024-02-21T12:12:35;5.57;;;2.28;;
37777;SDS011;23615;51.506;7.678;2024-02-21T12:15:03;6.47;;;2.10;;
37777;SDS011;23615;51.506;7.678;2024-02-21T12:17:29;4.30;;;2.00;;
37777;SDS011;23615;51.506;7.678;2024-02-21T12:19:58;6.97;;;2.17;;
37777;SDS011;23615;51.506;7.678;2024-02-21T12:22:25;5.50;;;2.33;;
37777;SDS011;23615;51.506;7.678;2024-02-21T12:24:50;5.07;;;2.13;;
37777;SDS011;23615;51.506;7.678;2024-02-21T12:27:15;7.25;;;2.30;;
37777;SDS011;23615;51.506;7.678;2024-02-21T12:29:41;4.87;;;1.40;;
37777;SDS011;23615;51.506;7.678;2024-02-21T12:32:06;9.10;;;2.20;;
37777;SDS011;23615;51.506;7.678;2024-02-21T12:34:31;3.97;;;1.57;;
37777;SDS011;23615;51.506;7.678;2024-02-21T12:36:58;7.83;;;2.00;;
37777;SDS011;23615;51.506;7.678;2024-02-21T12:39:24;5.60;;;2.00;;
37777;SDS011;23615;51.506;7.678;2024-02-21T12:41:49;6.30;;;2.07;;
37777;SDS011;23615;51.506;7.678;2024-02-21T12:44:14;5.40;;;2.03;;
37777;SDS011;23615;51.506;7.678;2024-02-21T12:46:42;6.47;;;1.58;;
37777;SDS011;23615;51.506;7.678;2024-02-21T12:49:07;4.23;;;1.80;;
37777;SDS011;23615;51.506;7.678;2024-02-21T12:51:33;5.90;;;1.73;;
37777;SDS011;23615;51.506;7.678;2024-02-21T12:53:59;8.90;;;1.60;;
37777;SDS011;23615;51.506;7.678;2024-02-21T12:56:24;7.23;;;2.40;;
37777;SDS011;23615;51.506;7.678;2024-02-21T12:58:52;4.30;;;1.37;;
37777;SDS011;23615;51.506;7.678;2024-02-21T13:01:17;4.73;;;1.13;;
37777;SDS011;23615;51.506;7.678;2024-02-21T13:03:42;6.17;;;1.80;;
37777;SDS011;23615;51.506;7.678;2024-02-21T13:06:08;4.00;;;1.47;;
37777;SDS011;23615;51.506;7.678;2024-02-21T13:08:35;5.10;;;1.67;;
37777;SDS011;23615;51.506;7.678;2024-02-21T13:11:01;4.67;;;1.60;;
37777;SDS011;23615;51.506;7.678;2024-02-21T13:13:26;5.33;;;1.33;;
37777;SDS011;23615;51.506;7.678;2024-02-21T13:15:52;3.23;;;1.33;;
37777;SDS011;23615;51.506;7.678;2024-02-21T13:18:17;5.13;;;1.40;;
37777;SDS011;23615;51.506;7.678;2024-02-21T13:20:42;4.53;;;1.30;;
37777;SDS011;23615;51.506;7.678;2024-02-21T13:23:08;4.93;;;1.67;;
37777;SDS011;23615;51.506;7.678;2024-02-21T13:25:33;2.60;;;1.30;;
37777;SDS011;23615;51.506;7.678;2024-02-21T13:27:58;5.73;;;1.27;;
37777;SDS011;23615;51.506;7.678;2024-02-21T13:30:24;3.87;;;1.13;;
37777;SDS011;23615;51.506;7.678;2024-02-21T13:32:50;4.72;;;1.05;;
37777;SDS011;23615;51.506;7.678;2024-02-21T13:35:16;3.40;;;1.20;;
37777;SDS011;23615;51.506;7.678;2024-02-21T13:37:41;5.17;;;1.17;;
37777;SDS011;23615;51.506;7.678;2024-02-21T13:40:07;6.20;;;1.20;;
37777;SDS011;23615;51.506;7.678;2024-02-21T13:42:39;3.93;;;1.33;;
37777;SDS011;23615;51.506;7.678;2024-02-21T13:45:05;5.53;;;1.50;;
37777;SDS011;23615;51.506;7.678;2024-02-21T13:47:31;4.10;;;1.23;;
37777;SDS011;23615;51.506;7.678;2024-02-21T13:49:57;5.22;;;1.67;;
37777;SDS011;23615;51.506;7.678;2024-02-21T13:52:22;4.00;;;1.33;;
37777;SDS011;23615;51.506;7.678;2024-02-21T13:54:51;5.25;;;2.00;;
37777;SDS011;23615;51.506;7.678;2024-02-21T13:57:16;6.00;;;2.03;;
37777;SDS011;23615;51.506;7.678;2024-02-21T13:59:41;6.00;;;2.03;;
37777;SDS011;23615;51.506;7.678;2024-02-21T14:02:07;8.02;;;1.95;;
37777;SDS011;23615;51.506;7.678;2024-02-21T14:04:33;4.90;;;1.90;;
37777;SDS011;23615;51.506;7.678;2024-02-21T14:06:59;8.45;;;2.10;;
37777;SDS011;23615;51.506;7.678;2024-02-21T14:09:25;6.18;;;1.98;;
37777;SDS011;23615;51.506;7.678;2024-02-21T14:11:50;7.40;;;2.40;;
37777;SDS011;23615;51.506;7.678;2024-02-21T14:14:16;3.97;;;1.33;;
37777;SDS011;23615;51.506;7.678;2024-02-21T14:16:41;4.13;;;1.90;;
37777;SDS011;23615;51.506;7.678;2024-02-21T14:19:06;6.37;;;1.57;;
37777;SDS011;23615;51.506;7.678;2024-02-21T14:21:33;6.18;;;2.08;;
37777;SDS011;23615;51.506;7.678;2024-02-21T14:23:58;3.80;;;1.40;;
37777;SDS011;23615;51.506;7.678;2024-02-21T14:26:26;4.90;;;1.48;;
37777;SDS011;23615;51.506;7.678;2024-02-21T14:28:52;4.07;;;1.07;;
37777;SDS011;23615;51.506;7.678;2024-02-21T14:31:17;4.23;;;1.33;;
37777;SDS011;23615;51.506;7.678;2024-02-21T14:33:43;2.57;;;1.50;;
37777;SDS011;23615;51.506;7.678;2024-02-21T14:36:08;3.13;;;1.20;;
37777;SDS011;23615;51.506;7.678;2024-02-21T14:38:33;4.90;;;1.53;;